sensor_id;sensor_type;location;lat;lon;timestamp;P1;durP1;ratioP1;P2;durP2;ratioP2
38785;SDS011;24535;45.508;12.252;2022-09-24T00:02:21;7.35;;;4.78;;
38785;SDS011;24535;45.508;12.252;2022-09-24T00:04:46;7.15;;;5.43;;
38785;SDS011;24535;45.508;12.252;2022-09-24T00:07:12;10.57;;;6.32;;
38785;SDS011;24535;45.508;12.252;2022-09-24T00:09:37;7.28;;;5.53;;
38785;SDS011;24535;45.508;12.252;2022-09-24T00:12:03;8.63;;;5.65;;
38785;SDS011;24535;45.508;12.252;2022-09-24T00:14:31;9.98;;;5.50;;
38785;SDS011;24535;45.508;12.252;2022-09-24T00:16:57;7.77;;;5.43;;
38785;SDS011;24535;45.508;12.252;2022-09-24T00:19:22;9.75;;;6.38;;
38785;SDS011;24535;45.508;12.252;2022-09-24T00:21:48;8.93;;;6.15;;
38785;SDS011;24535;45.508;12.252;2022-09-24T00:24:14;11.18;;;5.85;;
38785;SDS011;24535;45.508;12.252;2022-09-24T00:26:59;9.00;;;5.82;;
38785;SDS011;24535;45.508;12.252;2022-09-24T00:29:25;9.40;;;5.60;;
38785;SDS011;24535;45.508;12.252;2022-09-24T00:31:51;9.15;;;5.70;;
38785;SDS011;24535;45.508;12.252;2022-09-24T00:34:23;8.25;;;6.55;;
38785;SDS011;24535;45.508;12.252;2022-09-24T00:36:48;7.68;;;5.80;;
38785;SDS011;24535;45.508;12.252;2022-09-24T00:39:14;9.00;;;5.38;;
38785;SDS011;24535;45.508;12.252;2022-09-24T00:41:43;11.13;;;5.53;;
38785;SDS011;24535;45.508;12.252;2022-09-24T00:46:59;8.20;;;6.15;;
38785;SDS011;24535;45.508;12.252;2022-09-24T00:49:31;9.43;;;6.53;;
38785;SDS011;24535;45.508;12.252;2022-09-24T00:51:56;7.10;;;6.40;;
38785;SDS011;24535;45.508;12.252;2022-09-24T00:54:23;6.90;;;5.32;;
38785;SDS011;24535;45.508;12.252;2022-09-24T00:56:57;7.60;;;5.70;;
38785;SDS011;24535;45.508;12.252;2022-09-24T00:59:24;4.22;;;3.47;;
38785;SDS011;24535;45.508;12.252;2022-09-24T01:01:51;9.85;;;5.90;;
38785;SDS011;24535;45.508;12.252;2022-09-24T01:04:23;9.07;;;5.63;;
38785;SDS011;24535;45.508;12.252;2022-09-24T01:06:51;9.63;;;5.72;;
38785;SDS011;24535;45.508;12.252;2022-09-24T01:09:20;9.35;;;5.72;;
38785;SDS011;24535;45.508;12.252;2022-09-24T01:11:51;6.32;;;5.68;;
38785;SDS011;24535;45.508;12.252;2022-09-24T01:14:46;5.63;;;5.03;;
38785;SDS011;24535;45.508;12.252;2022-09-24T01:25:56;9.52;;;6.50;;
38785;SDS011;24535;45.508;12.252;2022-09-24T01:28:34;7.40;;;4.85;;
38785;SDS011;24535;45.508;12.252;2022-09-24T01:31:21;7.47;;;5.78;;
38785;SDS011;24535;45.508;12.252;2022-09-24T01:33:53;6.28;;;4.63;;
38785;SDS011;24535;45.508;12.252;2022-09-24T01:36:26;6.63;;;4.45;;
38785;SDS011;24535;45.508;12.252;2022-09-24T01:38:57;5.80;;;4.93;;
38785;SDS011;24535;45.508;12.252;2022-09-24T01:41:42;5.95;;;4.88;;
38785;SDS011;24535;45.508;12.252;2022-09-24T01:44:09;8.15;;;5.25;;
38785;SDS011;24535;45.508;12.252;2022-09-24T01:46:40;9.65;;;5.32;;
38785;SDS011;24535;45.508;12.252;2022-09-24T01:49:09;7.70;;;5.85;;
38785;SDS011;24535;45.508;12.252;2022-09-24T01:51:45;9.90;;;5.88;;
38785;SDS011;24535;45.508;12.252;2022-09-24T01:59:58;8.95;;;6.13;;
38785;SDS011;24535;45.508;12.252;2022-09-24T02:08:25;7.15;;;6.13;;
38785;SDS011;24535;45.508;12.252;2022-09-24T02:11:20;8.23;;;6.82;;
38785;SDS011;24535;45.508;12.252;2022-09-24T02:16:34;8.43;;;6.38;;
38785;SDS011;24535;45.508;12.252;2022-09-24T02:19:07;7.88;;;6.32;;
38785;SDS011;24535;45.508;12.252;2022-09-24T02:21:37;7.40;;;6.28;;
38785;SDS011;24535;45.508;12.252;2022-09-24T02:24:07;7.45;;;6.15;;
38785;SDS011;24535;45.508;12.252;2022-09-24T02:26:38;9.52;;;6.57;;
38785;SDS011;24535;45.508;12.252;2022-09-24T02:35:09;10.32;;;7.78;;
38785;SDS011;24535;45.508;12.252;2022-09-24T02:37:40;9.18;;;8.25;;
38785;SDS011;24535;45.508;12.252;2022-09-24T02:40:08;12.50;;;9.07;;
38785;SDS011;24535;45.508;12.252;2022-09-24T02:42:41;10.38;;;7.13;;
38785;SDS011;24535;45.508;12.252;2022-09-24T02:45:07;11.30;;;7.35;;
38785;SDS011;24535;45.508;12.252;2022-09-24T02:47:42;8.90;;;7.43;;
38785;SDS011;24535;45.508;12.252;2022-09-24T02:53:16;9.55;;;7.38;;
38785;SDS011;24535;45.508;12.252;2022-09-24T02:55:41;11.52;;;7.32;;
38785;SDS011;24535;45.508;12.252;2022-09-24T02:58:07;9.30;;;7.97;;
38785;SDS011;24535;45.508;12.252;2022-09-24T03:00:42;11.68;;;7.32;;
38785;SDS011;24535;45.508;12.252;2022-09-24T03:03:07;10.00;;;7.40;;
38785;SDS011;24535;45.508;12.252;2022-09-24T03:05:33;11.23;;;6.60;;
38785;SDS011;24535;45.508;12.252;2022-09-24T03:07:58;10.07;;;6.53;;
38785;SDS011;24535;45.508;12.252;2022-09-24T03:10:24;9.57;;;6.18;;
38785;SDS011;24535;45.508;12.252;2022-09-24T03:12:53;9.80;;;6.47;;
38785;SDS011;24535;45.508;12.252;2022-09-24T03:15:18;11.52;;;7.63;;
38785;SDS011;24535;45.508;12.252;2022-09-24T03:17:44;7.82;;;6.75;;
38785;SDS011;24535;45.508;12.252;2022-09-24T03:20:09;12.57;;;7.38;;
38785;SDS011;24535;45.508;12.252;2022-09-24T03:22:39;12.85;;;8.00;;
38785;SDS011;24535;45.508;12.252;2022-09-24T03:25:04;9.73;;;7.63;;
38785;SDS011;24535;45.508;12.252;2022-09-24T03:27:30;9.23;;;7.45;;
38785;SDS011;24535;45.508;12.252;2022-09-24T03:29:56;9.30;;;7.22;;
38785;SDS011;24535;45.508;12.252;2022-09-24T03:32:40;10.30;;;8.30;;
38785;SDS011;24535;45.508;12.252;2022-09-24T03:35:05;10.38;;;7.93;;
38785;SDS011;24535;45.508;12.252;2022-09-24T03:37:31;9.15;;;7.82;;
38785;SDS011;24535;45.508;12.252;2022-09-24T03:39:59;11.18;;;8.07;;
38785;SDS011;24535;45.508;12.252;2022-09-24T03:42:25;13.13;;;7.93;;
38785;SDS011;24535;45.508;12.252;2022-09-24T03:44:50;11.90;;;8.20;;
38785;SDS011;24535;45.508;12.252;2022-09-24T03:47:18;11.63;;;7.82;;
38785;SDS011;24535;45.508;12.252;2022-09-24T03:49:48;8.73;;;7.47;;
38785;SDS011;24535;45.508;12.252;2022-09-24T03:54:49;8.65;;;5.82;;
38785;SDS011;24535;45.508;12.252;2022-09-24T03:57:15;7.50;;;6.05;;
38785;SDS011;24535;45.508;12.252;2022-09-24T03:59:42;8.85;;;6.65;;
38785;SDS011;24535;45.508;12.252;2022-09-24T04:02:08;8.80;;;4.60;;
38785;SDS011;24535;45.508;12.252;2022-09-24T04:04:40;7.32;;;6.28;;
38785;SDS011;24535;45.508;12.252;2022-09-24T04:07:06;8.55;;;6.57;;
38785;SDS011;24535;45.508;12.252;2022-09-24T04:09:31;9.63;;;7.28;;
38785;SDS011;24535;45.508;12.252;2022-09-24T04:12:00;9.45;;;7.82;;
38785;SDS011;24535;45.508;12.252;2022-09-24T04:14:26;12.02;;;7.80;;
38785;SDS011;24535;45.508;12.252;2022-09-24T04:16:51;11.43;;;8.20;;
38785;SDS011;24535;45.508;12.252;2022-09-24T04:19:20;9.35;;;7.85;;
38785;SDS011;24535;45.508;12.252;2022-09-24T04:21:51;12.30;;;7.72;;
38785;SDS011;24535;45.508;12.252;2022-09-24T04:24:17;9.90;;;8.35;;
38785;SDS011;24535;45.508;12.252;2022-09-24T04:26:42;12.95;;;7.47;;
38785;SDS011;24535;45.508;12.252;2022-09-24T04:29:15;10.50;;;8.68;;
38785;SDS011;24535;45.508;12.252;2022-09-24T04:31:40;9.80;;;7.80;;
38785;SDS011;24535;45.508;12.252;2022-09-24T04:34:06;10.85;;;8.70;;
38785;SDS011;24535;45.508;12.252;2022-09-24T04:39:42;10.45;;;8.07;;
38785;SDS011;24535;45.508;12.252;2022-09-24T04:42:08;11.93;;;9.18;;
38785;SDS011;24535;45.508;12.252;2022-09-24T04:44:33;11.55;;;8.60;;
38785;SDS011;24535;45.508;12.252;2022-09-24T04:46:59;11.73;;;8.75;;
38785;SDS011;24535;45.508;12.252;2022-09-24T04:49:32;12.50;;;7.80;;
38785;SDS011;24535;45.508;12.252;2022-09-24T04:51:58;8.30;;;7.28;;
38785;SDS011;24535;45.508;12.252;2022-09-24T04:54:24;8.05;;;6.70;;
38785;SDS011;24535;45.508;12.252;2022-09-24T04:56:49;9.55;;;6.88;;
38785;SDS011;24535;45.508;12.252;2022-09-24T04:59:15;7.13;;;4.93;;
38785;SDS011;24535;45.508;12.252;2022-09-24T05:01:43;7.95;;;5.95;;
38785;SDS011;24535;45.508;12.252;2022-09-24T05:04:10;4.60;;;3.83;;
38785;SDS011;24535;45.508;12.252;2022-09-24T05:06:35;9.25;;;5.47;;
38785;SDS011;24535;45.508;12.252;2022-09-24T05:09:07;8.93;;;6.53;;
38785;SDS011;24535;45.508;12.252;2022-09-24T05:11:32;8.27;;;7.03;;
38785;SDS011;24535;45.508;12.252;2022-09-24T05:14:01;13.65;;;7.45;;
38785;SDS011;24535;45.508;12.252;2022-09-24T05:16:26;8.53;;;7.27;;
38785;SDS011;24535;45.508;12.252;2022-09-24T05:22:13;10.60;;;7.18;;
38785;SDS011;24535;45.508;12.252;2022-09-24T05:24:39;11.95;;;7.85;;
38785;SDS011;24535;45.508;12.252;2022-09-24T05:27:05;10.45;;;7.20;;
38785;SDS011;24535;45.508;12.252;2022-09-24T05:29:34;9.05;;;7.53;;
38785;SDS011;24535;45.508;12.252;2022-09-24T05:32:02;10.38;;;8.73;;
38785;SDS011;24535;45.508;12.252;2022-09-24T05:34:33;12.43;;;8.90;;
38785;SDS011;24535;45.508;12.252;2022-09-24T05:36:59;9.63;;;8.60;;
38785;SDS011;24535;45.508;12.252;2022-09-24T05:39:25;13.23;;;9.20;;
38785;SDS011;24535;45.508;12.252;2022-09-24T05:41:51;17.17;;;8.77;;
38785;SDS011;24535;45.508;12.252;2022-09-24T05:44:16;13.95;;;9.85;;
38785;SDS011;24535;45.508;12.252;2022-09-24T05:46:45;10.57;;;8.52;;
38785;SDS011;24535;45.508;12.252;2022-09-24T05:49:12;13.15;;;8.00;;
38785;SDS011;24535;45.508;12.252;2022-09-24T05:51:37;11.60;;;8.40;;
38785;SDS011;24535;45.508;12.252;2022-09-24T05:57:00;7.90;;;6.53;;
38785;SDS011;24535;45.508;12.252;2022-09-24T05:59:29;8.35;;;6.68;;
38785;SDS011;24535;45.508;12.252;2022-09-24T06:01:54;11.75;;;7.75;;
38785;SDS011;24535;45.508;12.252;2022-09-24T06:04:19;15.07;;;10.18;;
38785;SDS011;24535;45.508;12.252;2022-09-24T06:06:45;9.55;;;8.02;;
38785;SDS011;24535;45.508;12.252;2022-09-24T06:09:10;11.23;;;8.98;;
38785;SDS011;24535;45.508;12.252;2022-09-24T06:11:36;13.30;;;9.88;;
38785;SDS011;24535;45.508;12.252;2022-09-24T06:14:02;12.07;;;9.43;;
38785;SDS011;24535;45.508;12.252;2022-09-24T06:16:30;10.18;;;8.43;;
38785;SDS011;24535;45.508;12.252;2022-09-24T06:22:27;14.50;;;10.10;;
38785;SDS011;24535;45.508;12.252;2022-09-24T06:24:53;12.30;;;10.70;;
38785;SDS011;24535;45.508;12.252;2022-09-24T06:27:18;13.45;;;8.90;;
38785;SDS011;24535;45.508;12.252;2022-09-24T06:29:44;11.98;;;9.82;;
38785;SDS011;24535;45.508;12.252;2022-09-24T06:32:09;12.77;;;7.70;;
38785;SDS011;24535;45.508;12.252;2022-09-24T06:34:34;11.48;;;9.90;;
38785;SDS011;24535;45.508;12.252;2022-09-24T06:43:25;14.02;;;11.27;;
38785;SDS011;24535;45.508;12.252;2022-09-24T06:45:57;13.82;;;10.68;;
38785;SDS011;24535;45.508;12.252;2022-09-24T06:48:24;14.02;;;10.00;;
38785;SDS011;24535;45.508;12.252;2022-09-24T06:50:50;11.60;;;10.43;;
38785;SDS011;24535;45.508;12.252;2022-09-24T06:53:16;16.65;;;11.10;;
38785;SDS011;24535;45.508;12.252;2022-09-24T06:55:42;12.93;;;9.90;;
38785;SDS011;24535;45.508;12.252;2022-09-24T06:58:08;12.20;;;10.85;;
38785;SDS011;24535;45.508;12.252;2022-09-24T07:00:36;12.60;;;10.65;;
38785;SDS011;24535;45.508;12.252;2022-09-24T07:03:03;16.25;;;10.70;;
38785;SDS011;24535;45.508;12.252;2022-09-24T07:05:31;14.25;;;10.50;;
38785;SDS011;24535;45.508;12.252;2022-09-24T07:07:57;19.42;;;10.85;;
38785;SDS011;24535;45.508;12.252;2022-09-24T07:10:24;15.95;;;10.32;;
38785;SDS011;24535;45.508;12.252;2022-09-24T07:12:51;8.05;;;6.22;;
38785;SDS011;24535;45.508;12.252;2022-09-24T07:15:16;12.98;;;10.70;;
38785;SDS011;24535;45.508;12.252;2022-09-24T07:17:42;13.07;;;9.45;;
38785;SDS011;24535;45.508;12.252;2022-09-24T07:20:07;12.48;;;9.00;;
38785;SDS011;24535;45.508;12.252;2022-09-24T07:22:37;14.35;;;11.00;;
38785;SDS011;24535;45.508;12.252;2022-09-24T07:25:05;10.38;;;8.35;;
38785;SDS011;24535;45.508;12.252;2022-09-24T07:27:35;10.43;;;8.60;;
38785;SDS011;24535;45.508;12.252;2022-09-24T07:30:03;9.80;;;7.57;;
38785;SDS011;24535;45.508;12.252;2022-09-24T07:32:32;10.35;;;6.57;;
38785;SDS011;24535;45.508;12.252;2022-09-24T07:37:42;9.25;;;8.10;;
38785;SDS011;24535;45.508;12.252;2022-09-24T07:40:07;15.23;;;9.27;;
38785;SDS011;24535;45.508;12.252;2022-09-24T07:45:42;10.68;;;7.60;;
38785;SDS011;24535;45.508;12.252;2022-09-24T07:48:08;10.52;;;7.95;;
38785;SDS011;24535;45.508;12.252;2022-09-24T07:50:37;8.80;;;6.60;;
38785;SDS011;24535;45.508;12.252;2022-09-24T07:53:07;10.90;;;7.38;;
38785;SDS011;24535;45.508;12.252;2022-09-24T07:55:35;11.80;;;5.97;;
38785;SDS011;24535;45.508;12.252;2022-09-24T07:58:04;11.67;;;7.93;;
38785;SDS011;24535;45.508;12.252;2022-09-24T08:00:32;10.13;;;6.97;;
38785;SDS011;24535;45.508;12.252;2022-09-24T08:02:57;12.18;;;7.53;;
38785;SDS011;24535;45.508;12.252;2022-09-24T08:05:23;9.05;;;6.93;;
38785;SDS011;24535;45.508;12.252;2022-09-24T08:07:50;7.30;;;6.20;;
38785;SDS011;24535;45.508;12.252;2022-09-24T08:10:16;9.35;;;5.65;;
38785;SDS011;24535;45.508;12.252;2022-09-24T08:18:11;7.85;;;5.55;;
38785;SDS011;24535;45.508;12.252;2022-09-24T08:20:43;8.25;;;5.13;;
38785;SDS011;24535;45.508;12.252;2022-09-24T08:26:27;9.63;;;7.35;;
38785;SDS011;24535;45.508;12.252;2022-09-24T08:28:53;7.15;;;5.05;;
38785;SDS011;24535;45.508;12.252;2022-09-24T08:31:36;10.20;;;7.07;;
38785;SDS011;24535;45.508;12.252;2022-09-24T12:16:52;5.30;;;2.03;;
38785;SDS011;24535;45.508;12.252;2022-09-24T14:33:59;5.70;;;3.35;;
38785;SDS011;24535;45.508;12.252;2022-09-24T14:36:46;6.28;;;3.70;;
38785;SDS011;24535;45.508;12.252;2022-09-24T14:45:21;5.22;;;3.40;;
38785;SDS011;24535;45.508;12.252;2022-09-24T14:48:19;5.15;;;3.55;;
38785;SDS011;24535;45.508;12.252;2022-09-24T15:09:03;6.70;;;3.20;;
38785;SDS011;24535;45.508;12.252;2022-09-24T15:17:44;3.78;;;2.40;;
38785;SDS011;24535;45.508;12.252;2022-09-24T15:20:19;4.22;;;2.15;;
38785;SDS011;24535;45.508;12.252;2022-09-24T15:25:23;3.33;;;3.03;;
38785;SDS011;24535;45.508;12.252;2022-09-24T15:27:52;6.30;;;3.13;;
38785;SDS011;24535;45.508;12.252;2022-09-24T15:36:23;4.05;;;2.85;;
38785;SDS011;24535;45.508;12.252;2022-09-24T15:38:55;6.18;;;4.15;;
38785;SDS011;24535;45.508;12.252;2022-09-24T15:51:26;4.70;;;3.75;;
38785;SDS011;24535;45.508;12.252;2022-09-24T15:59:38;5.78;;;4.10;;
38785;SDS011;24535;45.508;12.252;2022-09-24T16:02:18;4.68;;;3.85;;
38785;SDS011;24535;45.508;12.252;2022-09-24T16:05:08;9.50;;;4.40;;
38785;SDS011;24535;45.508;12.252;2022-09-24T16:08:13;6.85;;;4.28;;
38785;SDS011;24535;45.508;12.252;2022-09-24T16:11:19;9.90;;;4.97;;
38785;SDS011;24535;45.508;12.252;2022-09-24T16:13:45;5.03;;;4.22;;
38785;SDS011;24535;45.508;12.252;2022-09-24T16:19:56;7.90;;;5.05;;
38785;SDS011;24535;45.508;12.252;2022-09-24T16:22:24;6.13;;;4.78;;
38785;SDS011;24535;45.508;12.252;2022-09-24T16:25:07;7.70;;;5.13;;
38785;SDS011;24535;45.508;12.252;2022-09-24T16:27:36;7.90;;;4.57;;
38785;SDS011;24535;45.508;12.252;2022-09-24T17:03:55;8.52;;;6.78;;
38785;SDS011;24535;45.508;12.252;2022-09-24T17:06:28;10.02;;;6.85;;
38785;SDS011;24535;45.508;12.252;2022-09-24T17:09:29;8.70;;;7.00;;
38785;SDS011;24535;45.508;12.252;2022-09-24T17:21:15;11.82;;;6.20;;
38785;SDS011;24535;45.508;12.252;2022-09-24T17:30:40;9.48;;;6.70;;
38785;SDS011;24535;45.508;12.252;2022-09-24T17:33:12;6.22;;;5.60;;
38785;SDS011;24535;45.508;12.252;2022-09-24T17:36:05;11.38;;;6.85;;
38785;SDS011;24535;45.508;12.252;2022-09-24T17:41:58;8.45;;;6.30;;
38785;SDS011;24535;45.508;12.252;2022-09-24T17:44:40;7.70;;;4.45;;
38785;SDS011;24535;45.508;12.252;2022-09-24T18:00:09;11.10;;;8.07;;
38785;SDS011;24535;45.508;12.252;2022-09-24T18:03:19;11.40;;;7.25;;
38785;SDS011;24535;45.508;12.252;2022-09-24T19:26:21;10.30;;;6.15;;
38785;SDS011;24535;45.508;12.252;2022-09-24T19:35:20;14.13;;;7.75;;
38785;SDS011;24535;45.508;12.252;2022-09-24T19:51:51;11.43;;;9.20;;
